createdAt,value
2023-01-30T00:02:09.607Z,11.68
2023-01-30T00:04:41.246Z,11.15
2023-01-30T00:07:13.155Z,11.57
2023-01-30T00:09:44.929Z,12.07
2023-01-30T00:12:16.683Z,11.63
2023-01-30T00:14:51.023Z,11.40
2023-01-30T00:17:22.590Z,10.48
2023-01-30T00:19:53.863Z,11.77
2023-01-30T00:22:25.454Z,12.05
2023-01-30T00:24:56.774Z,12.18
2023-01-30T00:27:28.315Z,12.20
2023-01-30T00:30:03.506Z,12.60
2023-01-30T00:32:36.065Z,12.38
2023-01-30T00:35:09.622Z,13.23
2023-01-30T00:37:41.484Z,12.68
2023-01-30T00:40:14.745Z,12.18
2023-01-30T00:42:58.810Z,12.82
2023-01-30T00:45:45.183Z,13.15
2023-01-30T00:48:16.793Z,13.18
2023-01-30T00:50:48.062Z,13.00
2023-01-30T00:53:20.366Z,12.95
2023-01-30T00:55:54.495Z,12.27
2023-01-30T00:58:27.791Z,13.52
2023-01-30T01:01:05.196Z,12.82
2023-01-30T01:03:38.164Z,13.18
2023-01-30T01:06:10.008Z,12.68
2023-01-30T01:08:41.553Z,12.65
2023-01-30T01:11:24.750Z,14.02
2023-01-30T01:13:58.042Z,13.13
2023-01-30T01:16:33.798Z,12.65
2023-01-30T01:19:05.936Z,13.98
2023-01-30T01:21:37.043Z,14.07
2023-01-30T01:24:09.632Z,13.25
2023-01-30T01:26:42.248Z,13.60
2023-01-30T01:29:16.384Z,14.57
2023-01-30T01:31:50.325Z,14.52
2023-01-30T01:34:21.932Z,13.75
2023-01-30T01:36:54.234Z,14.23
2023-01-30T01:39:46.621Z,14.95
2023-01-30T01:42:15.166Z,14.77
2023-01-30T01:45:04.460Z,14.40
2023-01-30T01:47:40.405Z,14.82
2023-01-30T01:50:19.214Z,14.82
2023-01-30T01:52:52.588Z,15.32
2023-01-30T01:55:26.972Z,13.48
2023-01-30T01:58:03.834Z,14.00
2023-01-30T02:00:36.096Z,14.80
2023-01-30T02:03:13.824Z,14.77
2023-01-30T02:05:49.997Z,15.45
2023-01-30T02:08:25.876Z,15.25
2023-01-30T02:11:05.676Z,14.88
2023-01-30T02:13:37.162Z,16.25
2023-01-30T02:16:11.802Z,17.02
2023-01-30T02:18:48.594Z,18.35
2023-01-30T02:21:49.400Z,16.95
2023-01-30T02:24:48.618Z,16.70
2023-01-30T02:27:51.996Z,14.73
2023-01-30T02:31:04.063Z,16.73
2023-01-30T02:33:44.118Z,16.98
2023-01-30T02:36:23.137Z,16.75
2023-01-30T02:39:05.961Z,17.92
2023-01-30T02:41:44.634Z,16.83
2023-01-30T02:44:22.638Z,18.45
2023-01-30T02:47:02.189Z,17.70
2023-01-30T02:49:39.912Z,17.27
2023-01-30T02:52:16.752Z,19.67
2023-01-30T02:54:49.363Z,20.00
2023-01-30T02:57:23.954Z,19.52
2023-01-30T03:00:00.174Z,18.95
2023-01-30T03:03:07.640Z,19.63
2023-01-30T03:06:01.390Z,19.13
2023-01-30T03:08:44.028Z,19.17
2023-01-30T03:11:16.258Z,18.40
2023-01-30T03:13:56.350Z,18.25
2023-01-30T03:16:34.840Z,20.30
2023-01-30T03:19:14.529Z,20.23
2023-01-30T03:21:49.356Z,18.83
2023-01-30T03:24:22.179Z,20.52
2023-01-30T03:26:59.947Z,19.20
2023-01-30T03:29:31.296Z,17.83
2023-01-30T03:32:03.005Z,18.98
2023-01-30T03:34:36.901Z,19.63
2023-01-30T03:37:09.501Z,15.90
2023-01-30T03:39:40.821Z,18.10
2023-01-30T03:42:12.734Z,17.73
2023-01-30T03:44:45.988Z,16.60
2023-01-30T03:47:17.563Z,18.10
2023-01-30T03:49:51.318Z,17.52
2023-01-30T03:52:23.020Z,14.38
2023-01-30T03:54:54.849Z,18.50
2023-01-30T03:57:26.448Z,18.50
2023-01-30T03:59:57.713Z,19.88
2023-01-30T04:02:29.769Z,18.90
2023-01-30T04:05:04.130Z,17.95
2023-01-30T04:07:36.132Z,18.63
2023-01-30T04:10:08.607Z,18.65
2023-01-30T04:12:40.246Z,17.75
2023-01-30T04:15:12.905Z,17.60
2023-01-30T04:17:47.984Z,16.02
2023-01-30T04:20:22.903Z,18.58
2023-01-30T04:22:54.535Z,16.95
2023-01-30T04:25:25.716Z,16.58
2023-01-30T04:27:57.512Z,17.50
2023-01-30T04:30:28.869Z,18.30
2023-01-30T04:33:00.749Z,16.30
2023-01-30T04:35:34.688Z,17.13
2023-01-30T04:38:06.496Z,17.08
2023-01-30T04:40:37.938Z,16.27
2023-01-30T04:43:09.552Z,16.77
2023-01-30T04:45:41.467Z,17.65
2023-01-30T04:48:13.140Z,17.05
2023-01-30T04:50:50.264Z,16.58
2023-01-30T04:53:22.639Z,17.85
2023-01-30T04:55:54.400Z,17.13
2023-01-30T04:58:26.483Z,16.70
2023-01-30T05:00:57.894Z,16.85
2023-01-30T05:03:29.611Z,18.83
2023-01-30T05:06:03.766Z,19.00
2023-01-30T05:08:35.840Z,18.13
2023-01-30T05:11:07.316Z,17.15
2023-01-30T05:13:38.803Z,19.92
2023-01-30T05:16:10.458Z,16.85
2023-01-30T05:18:42.195Z,19.88
2023-01-30T05:21:17.508Z,20.25
2023-01-30T05:23:49.543Z,20.65
2023-01-30T05:26:20.803Z,20.02
2023-01-30T05:28:55.947Z,20.98
2023-01-30T05:31:27.963Z,21.77
2023-01-30T05:33:59.899Z,20.95
2023-01-30T05:36:34.879Z,22.45
2023-01-30T05:39:07.204Z,22.23
2023-01-30T05:41:38.976Z,21.10
2023-01-30T05:44:11.811Z,20.55
2023-01-30T05:46:44.726Z,21.42
2023-01-30T05:49:16.507Z,21.42
2023-01-30T05:51:51.661Z,21.17
2023-01-30T05:54:23.966Z,23.85
2023-01-30T05:56:55.483Z,22.65
2023-01-30T05:59:29.645Z,21.80
2023-01-30T06:02:01.482Z,21.90
2023-01-30T06:04:33.476Z,21.35
2023-01-30T06:07:07.369Z,21.65
2023-01-30T06:09:39.130Z,21.75
2023-01-30T06:12:11.074Z,22.25
2023-01-30T06:14:43.051Z,23.40
2023-01-30T06:17:14.565Z,20.65
2023-01-30T06:19:46.223Z,22.73
2023-01-30T06:22:20.184Z,22.00
2023-01-30T06:24:51.723Z,20.02
2023-01-30T06:27:23.115Z,20.35
2023-01-30T06:29:54.966Z,21.92
2023-01-30T06:32:26.311Z,21.08
2023-01-30T06:34:57.994Z,20.55
2023-01-30T06:37:31.870Z,20.23
2023-01-30T06:40:03.651Z,20.70
2023-01-30T06:42:34.848Z,21.02
2023-01-30T06:45:06.960Z,20.58
2023-01-30T06:47:38.105Z,20.67
2023-01-30T06:50:11.154Z,20.65
2023-01-30T06:52:48.127Z,18.83
2023-01-30T06:55:22.053Z,20.75
2023-01-30T06:57:54.283Z,19.83
2023-01-30T07:00:26.419Z,14.93
2023-01-30T07:02:57.752Z,17.13
2023-01-30T07:05:30.046Z,17.40
2023-01-30T07:08:04.584Z,16.52
2023-01-30T07:10:36.487Z,17.38
2023-01-30T07:13:08.759Z,15.07
2023-01-30T07:15:40.944Z,15.02
2023-01-30T07:18:12.208Z,14.63
2023-01-30T07:20:44.584Z,16.60
2023-01-30T07:23:18.465Z,14.52
2023-01-30T07:25:49.969Z,14.27
2023-01-30T07:28:21.099Z,14.07
2023-01-30T07:30:53.460Z,15.05
2023-01-30T07:33:25.495Z,15.15
2023-01-30T07:35:59.060Z,13.35
2023-01-30T07:38:33.161Z,13.43
2023-01-30T07:41:07.389Z,14.38
2023-01-30T07:43:38.581Z,11.95
2023-01-30T07:46:10.344Z,12.50
2023-01-30T07:48:41.424Z,11.73
2023-01-30T07:51:12.784Z,11.85
2023-01-30T07:53:47.907Z,12.55
2023-01-30T07:56:24.924Z,11.90
2023-01-30T07:58:57.748Z,8.57
2023-01-30T08:01:33.574Z,11.38
2023-01-30T08:04:07.384Z,9.52
2023-01-30T08:07:00.373Z,10.30
2023-01-30T08:09:51.606Z,10.38
2023-01-30T08:12:24.406Z,11.75
2023-01-30T08:14:56.587Z,11.00
2023-01-30T08:17:29.411Z,10.90
2023-01-30T08:20:01.685Z,11.15
2023-01-30T08:22:34.453Z,10.95
2023-01-30T08:25:11.072Z,11.57
2023-01-30T08:27:43.923Z,10.57
2023-01-30T08:30:17.027Z,8.27
2023-01-30T08:32:50.263Z,9.55
2023-01-30T08:35:36.891Z,9.70
2023-01-30T08:38:10.159Z,9.25
2023-01-30T08:40:44.810Z,8.43
2023-01-30T08:43:16.941Z,8.32
2023-01-30T08:45:48.926Z,8.25
2023-01-30T08:48:21.272Z,7.22
2023-01-30T08:50:56.419Z,7.32
2023-01-30T08:53:28.802Z,7.15
2023-01-30T08:56:03.220Z,6.47
2023-01-30T08:58:41.589Z,6.55
2023-01-30T09:01:13.383Z,7.75
2023-01-30T09:03:45.980Z,6.28
2023-01-30T09:06:17.653Z,6.50
2023-01-30T09:08:49.992Z,6.28
2023-01-30T09:11:24.674Z,6.20
2023-01-30T09:14:01.113Z,5.60
2023-01-30T09:16:33.201Z,6.07
2023-01-30T09:19:06.074Z,6.03
2023-01-30T09:21:39.345Z,5.25
2023-01-30T09:24:11.784Z,4.90
2023-01-30T09:26:46.475Z,4.97
2023-01-30T09:29:45.446Z,5.00
2023-01-30T09:32:37.832Z,4.80
2023-01-30T09:35:10.989Z,5.05
2023-01-30T09:37:49.617Z,4.65
2023-01-30T09:40:27.297Z,4.10
2023-01-30T09:43:23.138Z,4.13
2023-01-30T09:46:07.034Z,4.00
2023-01-30T09:48:47.375Z,3.70
2023-01-30T09:51:36.372Z,3.45
2023-01-30T09:54:25.227Z,3.70
2023-01-30T09:57:03.490Z,3.20
2023-01-30T09:59:49.985Z,3.38
2023-01-30T10:02:44.691Z,2.63
2023-01-30T10:05:17.380Z,2.85
2023-01-30T10:08:07.022Z,2.70
2023-01-30T10:11:09.032Z,2.35
2023-01-30T10:14:03.570Z,2.60
2023-01-30T10:16:48.337Z,2.30
2023-01-30T10:22:47.182Z,2.40
2023-01-30T10:25:31.472Z,2.72
2023-01-30T10:28:08.720Z,2.05
2023-01-30T10:30:54.950Z,2.63
2023-01-30T10:33:45.459Z,2.60
2023-01-30T10:36:24.875Z,2.78
2023-01-30T10:39:02.724Z,2.78
2023-01-30T10:41:41.059Z,3.20
2023-01-30T10:44:34.869Z,2.60
2023-01-30T10:47:46.226Z,3.50
2023-01-30T10:50:26.881Z,2.40
2023-01-30T10:53:07.823Z,3.13
2023-01-30T10:55:48.738Z,3.28
2023-01-30T10:58:46.926Z,2.60
2023-01-30T11:01:27.115Z,3.10
2023-01-30T11:04:06.442Z,3.20
2023-01-30T11:06:43.633Z,2.70
2023-01-30T11:09:17.023Z,3.45
2023-01-30T11:11:56.308Z,2.70
2023-01-30T11:14:28.859Z,3.40
2023-01-30T11:17:02.778Z,2.63
2023-01-30T11:19:38.252Z,2.80
2023-01-30T11:22:17.731Z,2.83
2023-01-30T11:24:50.214Z,3.38
2023-01-30T11:27:29.172Z,3.78
2023-01-30T11:30:16.412Z,3.42
2023-01-30T11:32:51.546Z,2.90
2023-01-30T11:35:29.763Z,3.28
2023-01-30T11:38:16.566Z,3.65
2023-01-30T11:40:48.839Z,2.95
2023-01-30T11:43:20.833Z,3.70
2023-01-30T11:45:54.133Z,3.05
2023-01-30T11:48:33.900Z,3.40
2023-01-30T11:51:27.068Z,3.90
2023-01-30T11:54:05.407Z,3.38
2023-01-30T11:56:41.261Z,3.42
2023-01-30T11:59:27.749Z,2.95
2023-01-30T12:02:08.336Z,3.40
2023-01-30T12:04:40.749Z,3.15
2023-01-30T12:07:23.789Z,2.67
2023-01-30T12:10:01.066Z,2.38
2023-01-30T12:12:40.435Z,3.17
2023-01-30T12:15:26.460Z,2.30
2023-01-30T12:18:06.904Z,2.60
2023-01-30T12:20:52.409Z,2.60
2023-01-30T12:23:46.075Z,3.30
2023-01-30T12:26:26.560Z,3.25
2023-01-30T12:29:07.838Z,3.72
2023-01-30T12:31:46.600Z,3.22
2023-01-30T12:34:20.559Z,3.65
2023-01-30T12:37:09.259Z,3.35
2023-01-30T12:39:58.958Z,3.55
2023-01-30T12:43:11.721Z,3.97
2023-01-30T12:45:50.359Z,2.97
2023-01-30T12:48:48.525Z,2.92
2023-01-30T12:51:44.543Z,2.88
2023-01-30T12:54:28.797Z,2.75
2023-01-30T12:57:15.650Z,2.90
2023-01-30T13:00:04.172Z,3.15
2023-01-30T13:03:02.718Z,2.90
2023-01-30T13:05:45.137Z,2.60
2023-01-30T13:08:36.881Z,2.90
2023-01-30T13:11:21.115Z,2.65
2023-01-30T13:13:59.246Z,3.15
2023-01-30T13:16:44.147Z,2.90
2023-01-30T13:19:40.376Z,2.83
2023-01-30T13:22:20.584Z,2.55
2023-01-30T13:25:11.465Z,2.75
2023-01-30T13:27:52.090Z,2.65
2023-01-30T13:30:28.098Z,2.65
2023-01-30T13:33:07.042Z,2.53
2023-01-30T13:35:46.050Z,2.33
2023-01-30T13:38:24.260Z,3.13
2023-01-30T13:41:00.774Z,2.55
2023-01-30T13:43:38.837Z,2.72
2023-01-30T13:46:17.605Z,2.15
2023-01-30T13:49:07.572Z,3.10
2023-01-30T13:51:51.233Z,3.20
2023-01-30T13:54:57.669Z,2.50
2023-01-30T13:57:46.711Z,2.80
2023-01-30T14:00:35.961Z,2.72
2023-01-30T14:03:35.667Z,3.05
2023-01-30T14:06:45.072Z,3.40
2023-01-30T14:09:29.357Z,3.47
2023-01-30T14:12:04.316Z,3.70
2023-01-30T14:14:42.959Z,3.10
2023-01-30T14:17:18.011Z,2.85
2023-01-30T14:20:24.247Z,2.17
2023-01-30T14:23:05.396Z,2.75
2023-01-30T14:25:57.118Z,3.08
2023-01-30T14:28:56.357Z,2.33
2023-01-30T14:31:58.639Z,2.20
2023-01-30T14:35:07.152Z,1.55
2023-01-30T14:38:15.448Z,1.48
2023-01-30T14:41:27.144Z,1.30
2023-01-30T14:43:59.890Z,0.80
2023-01-30T14:46:59.202Z,1.27
2023-01-30T14:49:36.339Z,1.02
2023-01-30T14:52:33.973Z,1.40
2023-01-30T14:55:07.730Z,1.45
2023-01-30T14:57:43.716Z,1.30
2023-01-30T15:00:23.367Z,1.33
2023-01-30T15:02:58.999Z,1.30
2023-01-30T15:05:36.259Z,1.45
2023-01-30T15:08:16.095Z,1.85
2023-01-30T15:11:08.142Z,1.63
2023-01-30T15:14:05.301Z,2.45
2023-01-30T15:17:02.614Z,2.00
2023-01-30T15:20:00.653Z,2.00
2023-01-30T15:22:48.135Z,1.80
2023-01-30T15:25:40.821Z,2.05
2023-01-30T15:28:34.125Z,1.58
2023-01-30T15:31:23.067Z,2.38
2023-01-30T15:33:58.047Z,1.88
2023-01-30T15:36:34.016Z,2.20
2023-01-30T15:39:08.844Z,2.10
2023-01-30T15:41:43.307Z,2.20
2023-01-30T15:44:43.130Z,1.80
2023-01-30T15:47:36.331Z,1.60
2023-01-30T15:50:12.648Z,2.13
2023-01-30T15:52:49.865Z,2.35
2023-01-30T15:55:27.891Z,2.28
2023-01-30T15:58:04.743Z,1.92
2023-01-30T16:00:41.046Z,2.47
2023-01-30T16:03:20.609Z,2.15
2023-01-30T16:05:55.731Z,2.08
2023-01-30T16:08:30.248Z,2.20
2023-01-30T16:11:03.861Z,2.05
2023-01-30T16:13:37.291Z,1.90
2023-01-30T16:16:15.383Z,2.42
2023-01-30T16:18:55.642Z,2.65
2023-01-30T16:21:36.097Z,2.72
2023-01-30T16:24:10.562Z,3.20
2023-01-30T16:26:46.981Z,2.40
2023-01-30T16:29:23.561Z,2.58
2023-01-30T16:31:57.569Z,2.83
2023-01-30T16:34:35.993Z,2.70
2023-01-30T16:37:25.692Z,2.80
2023-01-30T16:40:16.140Z,3.08
2023-01-30T16:42:59.514Z,2.67
2023-01-30T16:46:11.894Z,3.13
2023-01-30T16:48:45.919Z,3.08
2023-01-30T16:51:27.501Z,3.17
2023-01-30T16:54:04.712Z,3.28
2023-01-30T16:56:37.999Z,3.15
2023-01-30T16:59:22.122Z,3.00
2023-01-30T17:01:59.272Z,2.80
2023-01-30T17:04:33.640Z,2.90
2023-01-30T17:07:08.455Z,2.72
2023-01-30T17:09:46.243Z,3.45
2023-01-30T17:12:46.148Z,3.35
2023-01-30T17:15:35.615Z,3.13
2023-01-30T17:18:07.781Z,2.95
2023-01-30T17:20:51.616Z,2.85
2023-01-30T17:23:26.379Z,3.47
2023-01-30T17:25:58.779Z,2.95
2023-01-30T17:28:30.783Z,2.92
2023-01-30T17:31:03.702Z,2.88
2023-01-30T17:33:35.795Z,2.67
2023-01-30T17:36:10.063Z,3.25
2023-01-30T17:38:45.134Z,3.17
2023-01-30T17:41:22.769Z,3.22
2023-01-30T17:43:54.698Z,3.17
2023-01-30T17:46:34.923Z,3.42
2023-01-30T17:49:18.476Z,3.83
2023-01-30T17:51:51.378Z,3.47
2023-01-30T17:54:26.044Z,3.47
2023-01-30T17:57:02.502Z,4.22
2023-01-30T17:59:34.741Z,3.50
2023-01-30T18:02:07.081Z,3.30
2023-01-30T18:04:53.697Z,3.03
2023-01-30T18:07:32.653Z,3.22
2023-01-30T18:10:07.816Z,4.80
2023-01-30T18:12:40.713Z,3.92
2023-01-30T18:15:15.481Z,3.55
2023-01-30T18:17:51.295Z,4.35
2023-01-30T18:20:23.650Z,4.18
2023-01-30T18:22:55.977Z,3.97
2023-01-30T18:25:30.600Z,4.00
2023-01-30T18:28:03.458Z,4.60
2023-01-30T18:30:35.397Z,3.03
2023-01-30T18:33:07.880Z,3.97
2023-01-30T18:35:41.561Z,4.50
2023-01-30T18:38:14.221Z,3.70
2023-01-30T18:40:49.295Z,4.50
2023-01-30T18:43:22.617Z,4.32
2023-01-30T18:46:05.158Z,4.50
2023-01-30T18:48:38.295Z,4.46
2023-01-30T18:51:13.372Z,4.53
2023-01-30T18:53:46.921Z,4.22
2023-01-30T18:56:23.903Z,4.47
2023-01-30T18:58:57.897Z,4.20
2023-01-30T19:01:31.507Z,4.35
2023-01-30T19:04:09.041Z,4.35
2023-01-30T19:06:42.957Z,5.93
2023-01-30T19:09:18.519Z,4.28
2023-01-30T19:12:05.796Z,5.03
2023-01-30T19:14:38.260Z,4.70
2023-01-30T19:17:11.397Z,4.47
2023-01-30T19:19:44.395Z,4.55
2023-01-30T19:22:18.160Z,4.90
2023-01-30T19:24:51.036Z,3.80
2023-01-30T19:27:26.258Z,4.55
2023-01-30T19:29:58.857Z,4.32
2023-01-30T19:32:31.265Z,4.20
2023-01-30T19:35:04.252Z,4.20
2023-01-30T19:37:36.456Z,3.60
2023-01-30T19:40:12.215Z,4.32
2023-01-30T19:42:47.329Z,4.28
2023-01-30T19:45:21.123Z,5.22
2023-01-30T19:47:53.976Z,3.95
2023-01-30T19:50:27.035Z,3.83
2023-01-30T19:52:58.857Z,4.28
2023-01-30T19:55:31.398Z,5.05
2023-01-30T19:58:06.315Z,5.38
2023-01-30T20:00:38.618Z,4.20
2023-01-30T20:03:13.222Z,5.22
2023-01-30T20:05:46.195Z,5.05
2023-01-30T20:08:31.567Z,4.75
2023-01-30T20:11:24.118Z,5.20
2023-01-30T20:13:58.727Z,4.88
2023-01-30T20:16:34.938Z,4.93
2023-01-30T20:19:08.795Z,5.05
2023-01-30T20:21:41.195Z,5.35
2023-01-30T20:24:15.614Z,4.22
2023-01-30T20:26:48.837Z,4.45
2023-01-30T20:29:23.673Z,4.00
2023-01-30T20:31:58.986Z,4.68
2023-01-30T20:34:32.143Z,4.68
2023-01-30T20:37:07.104Z,4.45
2023-01-30T20:39:38.761Z,3.58
2023-01-30T20:42:14.734Z,3.83
2023-01-30T20:44:48.837Z,4.50
2023-01-30T20:47:20.864Z,4.13
2023-01-30T20:49:52.586Z,3.78
2023-01-30T20:52:24.600Z,3.40
2023-01-30T20:54:59.902Z,4.32
2023-01-30T20:57:32.541Z,3.60
2023-01-30T21:00:07.425Z,3.35
2023-01-30T21:02:43.244Z,3.45
2023-01-30T21:05:15.149Z,4.05
2023-01-30T21:07:49.844Z,3.47
2023-01-30T21:10:24.173Z,3.33
2023-01-30T21:12:59.645Z,3.50
2023-01-30T21:15:33.659Z,3.40
2023-01-30T21:18:06.558Z,3.20
2023-01-30T21:20:39.110Z,3.60
2023-01-30T21:23:11.191Z,3.72
2023-01-30T21:25:42.333Z,3.38
2023-01-30T21:28:13.805Z,3.78
2023-01-30T21:30:47.564Z,3.63
2023-01-30T21:33:20.640Z,3.50
2023-01-30T21:35:53.305Z,3.63
2023-01-30T21:38:39.369Z,3.63
2023-01-30T21:41:35.114Z,3.60
2023-01-30T21:44:09.996Z,3.40
2023-01-30T21:46:50.078Z,3.40
2023-01-30T21:49:25.399Z,3.08
2023-01-30T21:52:09.233Z,3.72
2023-01-30T21:54:46.012Z,3.63
2023-01-30T21:57:22.135Z,3.80
2023-01-30T22:00:08.985Z,3.53
2023-01-30T22:02:43.480Z,2.90
2023-01-30T22:05:15.919Z,3.10
2023-01-30T22:07:47.384Z,3.65
2023-01-30T22:10:22.487Z,3.63
2023-01-30T22:12:57.849Z,2.72
2023-01-30T22:15:30.131Z,3.90
2023-01-30T22:18:08.420Z,3.83
2023-01-30T22:20:40.833Z,3.35
2023-01-30T22:23:18.245Z,3.40
2023-01-30T22:26:04.346Z,3.05
2023-01-30T22:28:42.324Z,4.15
2023-01-30T22:31:21.489Z,3.38
2023-01-30T22:34:13.130Z,3.72
2023-01-30T22:37:01.707Z,3.28
2023-01-30T22:40:18.555Z,3.40
2023-01-30T22:43:06.471Z,3.75
2023-01-30T22:45:39.386Z,3.78
2023-01-30T22:48:13.738Z,3.67
2023-01-30T22:51:05.001Z,4.25
2023-01-30T22:53:38.460Z,4.18
2023-01-30T22:56:11.947Z,3.63
2023-01-30T22:58:48.374Z,4.38
2023-01-30T23:01:27.958Z,3.95
2023-01-30T23:04:02.801Z,3.92
2023-01-30T23:06:49.866Z,3.97
2023-01-30T23:09:26.810Z,3.72
2023-01-30T23:12:14.850Z,3.25
2023-01-30T23:14:49.709Z,3.55
2023-01-30T23:17:36.894Z,3.42
2023-01-30T23:20:11.498Z,4.90
2023-01-30T23:22:47.299Z,3.80
2023-01-30T23:25:22.005Z,4.07
2023-01-30T23:28:00.139Z,4.10
2023-01-30T23:30:36.719Z,4.68
2023-01-30T23:33:07.922Z,3.90
2023-01-30T23:35:42.670Z,4.22
2023-01-30T23:38:22.867Z,3.72
2023-01-30T23:41:07.528Z,3.78
2023-01-30T23:43:38.915Z,3.58
2023-01-30T23:46:17.663Z,3.90
2023-01-30T23:49:16.242Z,4.07
2023-01-30T23:52:32.033Z,3.47
2023-01-30T23:55:10.732Z,4.03
2023-01-30T23:57:47.290Z,3.60
